Time;durP1;ratioP1;P1;durP2;ratioP2;P2;SDS_P1;SDS_P2;PMS_P1;PMS_P2;Temp;Humidity;BMP_temperature;BMP_pressure;BME280_temperature;BME280_humidity;BME280_pressure;Samples;Min_cycle;Max_cycle;Signal;HPM_P1;HPM_P2
2021/10/25 00:01:31;;;;;;;17.98;10.32;;;;;;;0.93;94.90;99215.63;5064673;28;20036;-65
2021/10/25 00:03:57;;;;;;;19.58;11.23;;;;;;;0.92;94.36;99213.88;5063391;28;20216;-65
2021/10/25 00:06:23;;;;;;;23.00;11.88;;;;;;;0.96;94.44;99218.28;5046249;28;20325;-65
2021/10/25 00:08:49;;;;;;;23.35;11.23;;;;;;;0.96;94.89;99207.94;5046149;28;20317;-65
2021/10/25 00:11:14;;;;;;;18.83;10.70;;;;;;;1.01;94.10;99198.56;5053164;28;20019;-65
2021/10/25 00:13:40;;;;;;;23.40;12.05;;;;;;;1.05;94.06;99209.06;5066032;28;20023;-65
2021/10/25 00:16:06;;;;;;;22.05;11.23;;;;;;;0.99;93.95;99202.81;5065773;28;20020;-65
2021/10/25 00:18:33;;;;;;;23.25;11.50;;;;;;;0.96;94.69;99203.63;5046297;28;20047;-65
2021/10/25 00:20:59;;;;;;;24.45;10.93;;;;;;;0.77;94.26;99203.06;5045970;28;20082;-65
2021/10/25 00:23:24;;;;;;;24.63;11.80;;;;;;;0.67;94.69;99194.19;5045653;28;20021;-65
2021/10/25 00:25:50;;;;;;;30.05;11.88;;;;;;;0.63;94.99;99204.41;5057330;28;20044;-65
2021/10/25 00:28:15;;;;;;;21.17;11.57;;;;;;;0.71;95.68;99201.19;5052403;28;20025;-65
2021/10/25 00:30:40;;;;;;;22.60;10.63;;;;;;;0.61;94.78;99195.72;5065201;28;20017;-65
2021/10/25 00:33:07;;;;;;;18.38;10.63;;;;;;;0.61;94.48;99198.28;5055949;28;20117;-65
2021/10/25 00:35:32;;;;;;;19.85;10.15;;;;;;;0.64;94.98;99198.38;5054299;28;20021;-65
2021/10/25 00:37:58;;;;;;;17.05;9.35;;;;;;;0.78;93.99;99192.75;5052451;28;20079;-65
2021/10/25 00:40:23;;;;;;;19.65;11.07;;;;;;;0.69;93.79;99196.81;5064897;28;20363;-65
2021/10/25 00:42:48;;;;;;;19.02;10.18;;;;;;;0.54;93.56;99198.97;5045868;28;20017;-65
2021/10/25 00:45:14;;;;;;;16.50;9.70;;;;;;;0.69;94.03;99196.81;5045586;28;20313;-65
2021/10/25 00:47:40;;;;;;;17.27;9.82;;;;;;;0.75;93.80;99196.97;5046632;28;20024;-65
2021/10/25 00:50:06;;;;;;;19.15;9.60;;;;;;;0.64;94.09;99195.78;5061574;28;20017;-65
2021/10/25 00:52:32;;;;;;;20.45;9.77;;;;;;;0.67;94.34;99203.66;5053326;28;20328;-65
2021/10/25 00:54:57;;;;;;;15.32;9.20;;;;;;;0.69;94.10;99202.00;5058885;28;20021;-65
2021/10/25 00:57:23;;;;;;;17.48;10.05;;;;;;;0.68;94.21;99200.22;5063323;28;20313;-65
2021/10/25 00:59:48;;;;;;;18.70;10.40;;;;;;;0.76;93.85;99198.72;5053761;28;20036;-65
2021/10/25 01:02:14;;;;;;;17.02;10.02;;;;;;;0.82;93.57;99201.50;5045094;28;20037;-65
2021/10/25 01:04:40;;;;;;;18.25;10.40;;;;;;;0.73;93.59;99193.47;5064168;28;20017;-65
2021/10/25 01:07:05;;;;;;;21.20;10.15;;;;;;;0.76;93.63;99201.31;5060749;28;20068;-65
2021/10/25 01:09:32;;;;;;;23.15;10.13;;;;;;;0.75;93.73;99196.97;5065150;28;20084;-65
2021/10/25 01:11:58;;;;;;;17.40;9.73;;;;;;;0.66;93.35;99192.41;5051237;28;20025;-65
2021/10/25 01:14:23;;;;;;;17.00;9.73;;;;;;;0.74;93.45;99200.41;5044938;28;20022;-65
2021/10/25 01:16:49;;;;;;;17.42;9.70;;;;;;;0.46;92.64;99193.56;5053659;28;20067;-65
2021/10/25 01:19:15;;;;;;;18.17;9.88;;;;;;;0.39;93.52;99190.75;5064585;28;20217;-65
2021/10/25 01:21:41;;;;;;;15.93;9.07;;;;;;;0.51;93.41;99191.09;5061396;28;20029;-65
2021/10/25 01:24:06;;;;;;;15.82;8.27;;;;;;;0.53;93.55;99184.28;5051015;28;20025;-65
2021/10/25 01:26:32;;;;;;;18.33;9.85;;;;;;;0.64;93.39;99193.19;5044651;28;20040;-65
2021/10/25 01:28:57;;;;;;;15.15;9.23;;;;;;;0.51;93.56;99201.47;5044753;28;20021;-65
2021/10/25 01:31:23;;;;;;;15.40;8.23;;;;;;;0.44;93.16;99195.22;5044635;28;20030;-65
2021/10/25 01:33:51;;;;;;;17.00;9.55;;;;;;;0.36;93.84;99195.81;5045348;28;20052;-65
2021/10/25 01:36:18;;;;;;;14.48;8.50;;;;;;;0.39;93.97;99195.91;5044754;28;20045;-65
2021/10/25 01:38:44;;;;;;;15.23;8.95;;;;;;;0.35;93.59;99197.56;5046782;28;20032;-65
2021/10/25 01:41:09;;;;;;;16.35;9.23;;;;;;;0.47;93.71;99190.13;5058939;28;20029;-65
2021/10/25 01:43:37;;;;;;;19.40;9.25;;;;;;;0.41;92.95;99189.94;5049832;28;20036;-65
2021/10/25 01:46:05;;;;;;;21.70;10.05;;;;;;;0.29;93.24;99194.78;5064261;28;20027;-65
2021/10/25 01:48:31;;;;;;;15.13;8.43;;;;;;;0.43;93.04;99202.94;5062367;28;20059;-65
2021/10/25 01:50:56;;;;;;;19.13;10.25;;;;;;;0.42;92.74;99191.72;5063951;28;20033;-65
2021/10/25 01:53:22;;;;;;;16.33;9.27;;;;;;;0.46;93.15;99196.16;5060771;28;20024;-65
2021/10/25 01:55:58;;;;;;;18.13;9.65;;;;;;;0.36;93.08;99188.06;5044222;28;20260;-65
2021/10/25 01:58:24;;;;;;;17.67;9.05;;;;;;;0.37;92.97;99182.03;5044516;28;20209;-65
2021/10/25 02:00:50;;;;;;;16.25;9.32;;;;;;;0.32;93.29;99188.81;5044138;28;20032;-65
2021/10/25 02:03:16;;;;;;;15.13;9.00;;;;;;;0.32;93.94;99191.41;5044033;28;20048;-65
2021/10/25 02:05:41;;;;;;;19.77;9.57;;;;;;;0.28;92.44;99181.81;5044078;28;20044;-65
2021/10/25 02:08:07;;;;;;;18.63;9.70;;;;;;;0.33;93.31;99180.19;5044276;28;20021;-65
2021/10/25 02:10:33;;;;;;;20.45;10.50;;;;;;;0.36;93.32;99181.19;5055671;28;20328;-65
2021/10/25 02:12:58;;;;;;;14.45;8.85;;;;;;;0.32;93.48;99179.34;5048388;28;20085;-65
2021/10/25 02:15:24;;;;;;;19.60;9.90;;;;;;;0.35;93.59;99170.78;5063665;28;20028;-65
2021/10/25 02:17:49;;;;;;;20.38;10.20;;;;;;;0.35;93.47;99168.19;5056436;28;20232;-65
2021/10/25 02:20:15;;;;;;;13.98;8.77;;;;;;;0.30;93.59;99169.75;5043833;28;20025;-65
2021/10/25 02:22:40;;;;;;;18.67;9.82;;;;;;;0.39;93.35;99165.75;5057857;28;20043;-64
2021/10/25 02:25:06;;;;;;;18.02;9.70;;;;;;;0.32;93.87;99162.94;5063309;28;20071;-64
2021/10/25 02:27:31;;;;;;;16.33;8.38;;;;;;;0.38;93.32;99163.97;5051976;28;20092;-64
2021/10/25 02:29:57;;;;;;;16.45;9.57;;;;;;;0.42;93.06;99167.53;5043874;28;20018;-64
2021/10/25 02:32:23;;;;;;;17.73;9.73;;;;;;;0.45;92.81;99159.84;5060223;28;20084;-64
2021/10/25 02:34:49;;;;;;;17.27;9.77;;;;;;;0.18;93.31;99159.06;5061894;28;20029;-64
2021/10/25 02:37:15;;;;;;;15.75;8.70;;;;;;;0.17;93.81;99157.28;5048533;28;20088;-64
2021/10/25 02:39:41;;;;;;;17.95;9.52;;;;;;;0.22;94.35;99150.56;5043714;28;20025;-64
2021/10/25 02:42:07;;;;;;;18.25;9.52;;;;;;;0.27;93.79;99154.13;5043705;28;20116;-64
2021/10/25 02:44:32;;;;;;;19.40;10.10;;;;;;;0.38;93.34;99163.97;5044314;28;20021;-64
2021/10/25 02:46:58;;;;;;;16.05;9.68;;;;;;;0.42;93.50;99159.75;5048865;28;20029;-64
2021/10/25 02:49:23;;;;;;;14.35;8.13;;;;;;;0.39;93.78;99151.91;5056621;28;20023;-64
2021/10/25 02:51:49;;;;;;;18.05;8.85;;;;;;;0.34;93.63;99150.91;5067068;28;20013;-64
2021/10/25 02:54:14;;;;;;;16.48;8.93;;;;;;;0.27;94.04;99138.59;5066710;28;20028;-64
2021/10/25 02:56:40;;;;;;;15.30;8.57;;;;;;;0.08;93.34;99146.66;5066513;28;20027;-64
2021/10/25 02:59:09;;;;;;;22.00;9.73;;;;;;;0.03;94.12;99149.13;5063059;28;20051;-64
2021/10/25 03:01:38;;;;;;;14.40;9.00;;;;;;;0.21;93.54;99151.38;5061498;28;20044;-64
2021/10/25 03:04:06;;;;;;;15.98;8.85;;;;;;;0.14;93.04;99142.56;5049265;28;20017;-64
2021/10/25 03:06:32;;;;;;;16.77;9.38;;;;;;;0.14;93.38;99147.75;5058297;28;20024;-64
2021/10/25 03:08:58;;;;;;;16.38;9.18;;;;;;;0.20;93.65;99149.63;5055405;28;20094;-64
2021/10/25 03:11:24;;;;;;;17.92;9.38;;;;;;;0.20;93.28;99147.03;5065137;28;20017;-64
2021/10/25 03:13:49;;;;;;;16.52;9.80;;;;;;;0.17;93.42;99146.94;5066434;28;20047;-64
2021/10/25 03:16:15;;;;;;;18.85;10.05;;;;;;;0.24;93.33;99154.03;5049053;28;20032;-64
2021/10/25 03:18:41;;;;;;;14.85;8.45;;;;;;;0.22;93.11;99150.56;5064778;28;20040;-64
2021/10/25 03:21:06;;;;;;;16.13;8.45;;;;;;;0.28;92.90;99154.19;5064824;28;20055;-64
2021/10/25 03:23:34;;;;;;;17.63;9.55;;;;;;;0.23;93.19;99168.72;5049675;28;20056;-64
2021/10/25 03:26:00;;;;;;;17.70;8.82;;;;;;;0.09;94.07;99156.22;5052013;28;20372;-64
2021/10/25 03:28:26;;;;;;;14.00;8.07;;;;;;;0.12;94.11;99159.75;5066159;28;20024;-64
2021/10/25 03:30:52;;;;;;;15.90;9.10;;;;;;;0.28;93.75;99155.91;5049304;28;20309;-64
2021/10/25 03:33:18;;;;;;;26.08;9.77;;;;;;;0.35;93.81;99157.84;5047707;28;20186;-64
2021/10/25 03:35:44;;;;;;;15.80;8.63;;;;;;;0.43;93.82;99152.03;5061102;28;20040;-64
2021/10/25 03:38:11;;;;;;;15.90;8.32;;;;;;;0.54;93.09;99145.44;5048393;28;20104;-64
2021/10/25 03:40:38;;;;;;;16.05;8.07;;;;;;;0.47;93.36;99138.34;5045565;28;20059;-64
2021/10/25 03:43:04;;;;;;;18.83;8.85;;;;;;;0.54;92.70;99123.88;5046955;28;20025;-64
2021/10/25 03:45:49;;;;;;;19.38;9.38;;;;;;;0.51;92.15;99121.19;5054870;28;20340;-64
2021/10/25 03:50:44;;;;;;;15.00;7.63;;;;;;;0.32;91.94;99121.50;5045689;28;20265;-64
2021/10/25 04:27:56;;;;;;;16.73;8.95;;;;;;;0.21;93.52;99122.91;5045899;28;20351;-64
2021/10/25 04:30:22;;;;;;;16.30;8.73;;;;;;;0.35;93.47;99127.66;5045878;28;20029;-64
2021/10/25 04:32:47;;;;;;;16.27;8.95;;;;;;;0.29;92.83;99116.25;5046319;28;20051;-64
2021/10/25 04:35:13;;;;;;;17.67;8.77;;;;;;;0.28;93.35;99117.94;5064118;28;20051;-64
2021/10/25 04:37:39;;;;;;;15.77;8.35;;;;;;;0.18;93.61;99117.66;5062468;28;20028;-64
2021/10/25 04:40:06;;;;;;;18.70;8.73;;;;;;;0.31;93.07;99117.19;5062241;28;20031;-64
2021/10/25 04:42:32;;;;;;;21.58;8.45;;;;;;;0.24;93.52;99108.34;5065213;28;20350;-64
2021/10/25 04:44:58;;;;;;;18.08;8.35;;;;;;;0.14;93.21;99115.78;5065265;28;20029;-64
2021/10/25 04:47:23;;;;;;;18.85;8.13;;;;;;;0.03;93.49;99113.78;5058263;28;20075;-64
2021/10/25 04:49:49;;;;;;;18.52;8.85;;;;;;;-0.02;93.25;99115.38;5045412;28;20088;-64
2021/10/25 04:52:14;;;;;;;14.73;8.05;;;;;;;-0.04;93.80;99111.84;5045368;28;20252;-64
2021/10/25 04:54:42;;;;;;;14.95;8.77;;;;;;;-0.01;94.40;99117.13;5052151;28;20028;-64
2021/10/25 04:57:07;;;;;;;18.50;9.65;;;;;;;0.03;94.45;99117.22;5056728;28;20029;-64
2021/10/25 04:59:33;;;;;;;19.27;9.15;;;;;;;0.06;94.41;99122.47;5045229;28;20094;-64
2021/10/25 05:01:59;;;;;;;16.77;8.70;;;;;;;0.10;94.07;99113.97;5046251;28;20036;-64
2021/10/25 05:04:24;;;;;;;13.65;8.18;;;;;;;0.20;93.67;99103.03;5045123;28;20021;-64
2021/10/25 05:06:50;;;;;;;24.50;8.88;;;;;;;0.27;93.79;99097.19;5053311;28;20215;-64
2021/10/25 05:09:15;;;;;;;14.43;8.45;;;;;;;0.24;93.19;99094.50;5062699;28;20035;-64
2021/10/25 05:11:41;;;;;;;18.70;8.07;;;;;;;0.19;92.61;99083.16;5050589;28;20022;-64
2021/10/25 05:14:07;;;;;;;25.80;9.25;;;;;;;-0.01;92.09;99086.06;5045004;28;20029;-64
2021/10/25 05:16:32;;;;;;;21.98;9.18;;;;;;;-0.07;92.66;99085.00;5054264;28;20029;-64
2021/10/25 05:18:58;;;;;;;35.08;16.05;;;;;;;0.09;93.87;99096.69;5044823;28;20025;-64
2021/10/25 05:21:23;;;;;;;34.83;14.20;;;;;;;0.20;94.50;99105.63;5044757;28;20029;-64
2021/10/25 05:23:49;;;;;;;22.15;11.55;;;;;;;0.31;94.92;99119.75;5045029;28;20317;-64
2021/10/25 05:26:14;;;;;;;24.35;12.05;;;;;;;0.35;94.99;99124.19;5044806;28;20032;-64
2021/10/25 05:28:40;;;;;;;39.38;17.17;;;;;;;0.37;94.10;99110.44;5052695;28;20096;-64
2021/10/25 05:31:06;;;;;;;42.28;19.60;;;;;;;0.42;93.23;99110.56;5046116;28;20021;-64
2021/10/25 05:33:32;;;;;;;33.25;14.82;;;;;;;0.50;93.63;99098.72;5045734;28;20032;-64
2021/10/25 05:35:57;;;;;;;30.77;12.60;;;;;;;0.44;93.84;99090.78;5062473;28;20021;-64
2021/10/25 05:38:23;;;;;;;31.33;14.80;;;;;;;0.40;92.95;99094.09;5064507;28;20066;-64
2021/10/25 05:40:48;;;;;;;33.88;13.98;;;;;;;0.40;93.02;99078.56;5064365;28;20359;-64
2021/10/25 05:43:14;;;;;;;32.25;14.18;;;;;;;0.24;94.07;99086.75;5063732;28;20063;-64
2021/10/25 05:45:39;;;;;;;20.70;12.18;;;;;;;0.36;94.11;99074.16;5049769;28;20025;-64
2021/10/25 05:48:06;;;;;;;28.08;12.43;;;;;;;0.26;93.46;99085.09;5044354;28;20029;-64
2021/10/25 05:50:32;;;;;;;26.65;12.52;;;;;;;0.14;94.40;99084.75;5045841;28;20320;-64
2021/10/25 05:52:59;;;;;;;20.13;10.25;;;;;;;0.17;94.03;99074.47;5062563;28;20024;-64
2021/10/25 05:55:25;;;;;;;36.92;17.65;;;;;;;0.21;93.78;99084.06;5063965;28;20380;-64
2021/10/25 05:57:55;;;;;;;33.30;16.52;;;;;;;0.11;94.67;99089.81;5051191;28;20021;-64
2021/10/25 06:00:25;;;;;;;28.08;12.80;;;;;;;0.16;94.70;99088.25;5045519;28;20016;-64
2021/10/25 06:02:59;;;;;;;28.20;13.57;;;;;;;0.19;94.76;99093.53;5053833;28;20022;-64
2021/10/25 06:05:29;;;;;;;21.23;11.23;;;;;;;0.37;93.87;99086.25;5044118;28;20068;-64
2021/10/25 06:07:55;;;;;;;21.67;10.55;;;;;;;0.45;93.35;99089.94;5044360;28;20313;-64
2021/10/25 06:10:32;;;;;;;18.67;9.77;;;;;;;0.33;93.67;99099.94;5044011;28;20025;-64
2021/10/25 06:13:03;;;;;;;21.27;10.20;;;;;;;0.45;93.25;99097.72;5053710;28;20028;-64
2021/10/25 06:15:36;;;;;;;21.25;10.20;;;;;;;0.38;92.86;99096.66;5062407;28;20074;-64
2021/10/25 06:18:04;;;;;;;19.88;10.45;;;;;;;0.35;92.51;99104.38;5063702;28;20075;-64
2021/10/25 06:20:30;;;;;;;20.08;10.05;;;;;;;0.29;92.48;99105.88;5055963;28;20031;-64
2021/10/25 06:22:57;;;;;;;23.17;9.60;;;;;;;0.34;93.00;99109.50;5043915;28;20277;-64
2021/10/25 06:25:23;;;;;;;17.83;9.38;;;;;;;0.43;92.88;99104.53;5043910;28;20092;-64
2021/10/25 06:27:52;;;;;;;20.02;9.98;;;;;;;0.44;92.52;99101.16;5046185;28;20048;-64
2021/10/25 06:30:18;;;;;;;25.60;10.43;;;;;;;0.17;91.88;99100.34;5044982;28;20060;-64
2021/10/25 06:32:44;;;;;;;19.88;10.30;;;;;;;-0.20;93.19;99107.06;5043792;28;20021;-64
2021/10/25 06:35:13;;;;;;;17.17;9.10;;;;;;;-0.06;93.59;99113.50;5054085;28;20078;-64
2021/10/25 06:38:25;;;;;;;20.08;9.85;;;;;;;0.00;94.36;99118.00;5048995;28;20025;-64
2021/10/25 06:40:26;;;;;;;22.20;11.13;;;;;;;0.21;94.52;99117.72;5053713;28;20319;-64
2021/10/25 06:42:52;;;;;;;19.73;9.38;;;;;;;0.38;94.39;99129.44;5050018;28;20020;-64
2021/10/25 06:45:21;;;;;;;20.17;10.52;;;;;;;0.48;93.70;99118.50;5054212;28;20375;-64
2021/10/25 06:47:48;;;;;;;18.55;9.43;;;;;;;0.49;93.83;99128.03;5057705;28;20018;-64
2021/10/25 06:50:16;;;;;;;17.08;8.90;;;;;;;0.48;93.02;99126.28;5077895;28;20079;-64
2021/10/25 06:52:42;;;;;;;19.75;9.57;;;;;;;0.59;92.76;99114.47;5062493;28;20020;-64
2021/10/25 06:55:09;;;;;;;20.33;9.63;;;;;;;0.73;92.89;99115.75;5074734;28;20029;-64
2021/10/25 06:57:35;;;;;;;22.08;9.25;;;;;;;0.75;92.67;99119.25;5056178;28;20020;-64
2021/10/25 07:00:01;;;;;;;15.30;9.15;;;;;;;0.94;91.96;99122.38;5065685;28;20031;-64
2021/10/25 07:02:27;;;;;;;17.23;8.90;;;;;;;1.01;91.79;99115.66;5074615;28;20021;-64
2021/10/25 07:04:53;;;;;;;20.38;9.52;;;;;;;1.00;92.02;99116.47;5070341;28;20217;-64
2021/10/25 07:07:23;;;;;;;16.48;9.27;;;;;;;1.14;92.12;99121.16;5069613;28;20205;-64
2021/10/25 07:09:48;;;;;;;16.33;8.68;;;;;;;1.23;91.90;99116.19;5068422;28;20029;-64
2021/10/25 07:12:13;;;;;;;20.42;10.95;;;;;;;1.18;91.31;99116.94;5074821;28;20398;-64
2021/10/25 07:14:40;;;;;;;19.40;10.10;;;;;;;1.26;91.76;99120.56;5057985;28;20031;-64
2021/10/25 08:05:53;;;;;;;21.25;11.20;;;;;;;5.15;83.52;99170.88;5057294;28;20028;-64
2021/10/25 08:08:30;;;;;;;23.60;9.88;;;;;;;4.50;84.02;99162.31;5058239;28;20317;-64
2021/10/25 08:13:34;;;;;;;22.00;10.35;;;;;;;4.14;86.82;99156.59;5046532;28;20056;-64
2021/10/25 08:16:09;;;;;;;19.52;10.85;;;;;;;4.10;87.61;99153.09;5053461;28;20055;-64
2021/10/25 08:19:06;;;;;;;19.17;10.00;;;;;;;4.29;87.20;99146.38;5046181;28;20045;-64
2021/10/25 08:21:23;;;;;;;20.92;10.23;;;;;;;4.22;87.62;99145.44;5045757;28;20202;-64
2021/10/25 08:23:50;;;;;;;24.38;10.75;;;;;;;5.48;84.54;99155.56;5045932;28;20028;-64
2021/10/25 08:26:15;;;;;;;28.63;17.52;;;;;;;6.83;80.22;99147.75;5059415;28;20135;-64
2021/10/25 08:28:41;;;;;;;30.88;18.35;;;;;;;7.70;76.52;99151.41;5066033;28;20020;-64
2021/10/25 08:31:09;;;;;;;44.05;23.42;;;;;;;8.05;73.76;99144.41;5065775;28;20028;-64
2021/10/25 08:41:19;;;;;;;28.35;15.00;;;;;;;10.87;67.73;99132.81;5045472;28;20100;-65
2021/10/25 08:43:46;;;;;;;20.90;13.15;;;;;;;11.42;66.55;99133.81;5045400;28;20325;-65
2021/10/25 08:46:14;;;;;;;27.17;13.98;;;;;;;11.25;67.60;99133.19;5045490;28;20025;-65
2021/10/25 08:48:44;;;;;;;18.65;12.57;;;;;;;12.28;64.34;99199.25;5045458;28;20025;-65
2021/10/25 08:51:11;;;;;;;21.48;11.63;;;;;;;12.67;63.86;98984.63;5046585;28;20313;-65
2021/10/25 08:53:36;;;;;;;20.67;11.40;;;;;;;13.04;63.01;99043.69;5045259;28;20051;-65
2021/10/25 08:56:03;;;;;;;23.42;12.38;;;;;;;13.25;62.08;99038.84;5051965;28;20025;-65
2021/10/25 08:58:33;;;;;;;20.02;12.73;;;;;;;13.42;62.82;99026.06;5045276;28;20340;-65
2021/10/25 09:00:58;;;;;;;20.30;12.43;;;;;;;13.51;63.55;99023.19;5049667;28;20035;-65
2021/10/25 09:03:25;;;;;;;21.30;11.98;;;;;;;13.27;64.12;99015.84;5056136;28;20317;-65
2021/10/25 09:06:02;;;;;;;20.40;11.57;;;;;;;14.22;61.53;99014.22;5054939;28;20204;-65
2021/10/25 09:08:28;;;;;;;20.50;13.40;;;;;;;13.68;62.78;99007.75;5048474;28;20360;-65
2021/10/25 09:10:56;;;;;;;46.63;23.15;;;;;;;13.32;64.70;98998.13;5045901;28;20221;-65
2021/10/25 09:13:26;;;;;;;36.78;19.73;;;;;;;14.30;62.00;98996.41;5044968;28;20021;-65
2021/10/25 09:15:55;;;;;;;29.67;16.63;;;;;;;13.86;62.02;98994.91;5044928;28;20210;-65
2021/10/25 09:18:23;;;;;;;27.60;15.50;;;;;;;13.79;64.60;98987.19;5044737;28;20041;-65
2021/10/25 09:20:50;;;;;;;23.23;14.50;;;;;;;13.60;64.14;98981.50;5061735;28;20323;-65
2021/10/25 09:23:19;;;;;;;27.90;16.25;;;;;;;14.72;62.38;98984.53;5048147;28;20016;-65
2021/10/25 09:25:53;;;;;;;30.70;15.98;;;;;;;14.96;61.37;98967.84;5064697;28;20028;-65
2021/10/25 09:28:29;;;;;;;29.67;15.18;;;;;;;15.12;62.08;98971.75;5056967;28;20070;-65
2021/10/25 09:31:00;;;;;;;26.73;14.88;;;;;;;15.22;62.22;98970.53;5044660;28;20017;-65
2021/10/25 09:33:35;;;;;;;23.02;12.73;;;;;;;14.59;64.26;98961.97;5051556;28;20308;-65
2021/10/25 09:36:05;;;;;;;24.15;13.18;;;;;;;14.63;64.29;98968.91;5056639;28;20063;-65
2021/10/25 09:49:28;;;;;;;15.02;8.32;;;;;;;15.64;64.20;98949.72;5043544;28;20321;-65
2021/10/25 09:51:55;;;;;;;21.17;9.57;;;;;;;15.19;65.19;98952.09;5051961;28;20190;-65
2021/10/25 09:54:22;;;;;;;13.52;7.15;;;;;;;15.10;66.22;98944.44;5055142;28;20033;-65
2021/10/25 09:57:02;;;;;;;12.50;6.63;;;;;;;15.51;65.94;98946.63;5058910;28;20035;-65
2021/10/25 09:59:35;;;;;;;13.95;6.80;;;;;;;15.66;64.58;98942.56;5050714;28;20021;-65
2021/10/25 10:02:03;;;;;;;13.35;6.53;;;;;;;16.16;63.62;98939.84;5047144;28;20049;-65
2021/10/25 10:04:29;;;;;;;13.30;6.95;;;;;;;16.59;62.44;98937.34;5044330;28;20025;-65
2021/10/25 10:06:58;;;;;;;13.35;6.10;;;;;;;17.04;59.02;98932.88;5044130;28;20045;-65
2021/10/25 10:09:24;;;;;;;10.23;5.72;;;;;;;16.84;59.31;98932.78;5046386;28;20043;-65
2021/10/25 10:11:50;;;;;;;10.82;6.05;;;;;;;16.81;59.82;98940.03;5045393;28;20305;-65
2021/10/25 10:14:16;;;;;;;10.57;5.88;;;;;;;17.27;58.37;98936.38;5053519;28;20022;-65
2021/10/25 10:16:46;;;;;;;10.35;4.60;;;;;;;17.13;57.64;98935.16;5043814;28;20059;-65
2021/10/25 10:19:18;;;;;;;12.38;5.55;;;;;;;17.41;59.51;98926.03;5047564;28;20024;-65
2021/10/25 10:21:46;;;;;;;15.15;5.88;;;;;;;17.51;58.85;98933.59;5055129;28;20305;-65
2021/10/25 10:24:13;;;;;;;11.30;5.13;;;;;;;17.69;58.84;98934.59;5062257;28;20021;-65
2021/10/25 10:26:40;;;;;;;12.50;5.03;;;;;;;17.60;61.49;98930.56;5060360;28;20025;-65
2021/10/25 10:29:16;;;;;;;10.13;5.13;;;;;;;17.82;58.83;98927.81;5054962;28;20272;-65
2021/10/25 10:31:43;;;;;;;11.80;5.30;;;;;;;17.87;59.22;98933.81;5063757;28;20021;-65
2021/10/25 10:34:17;;;;;;;9.90;4.80;;;;;;;17.78;60.88;98919.09;5049013;28;20079;-65
2021/10/25 10:36:54;;;;;;;11.57;4.85;;;;;;;17.93;60.24;98922.88;5060054;28;20336;-65
2021/10/25 10:39:25;;;;;;;8.95;4.65;;;;;;;18.00;59.58;98927.03;5056467;28;20024;-65
2021/10/25 10:42:01;;;;;;;12.45;4.15;;;;;;;18.12;59.06;98926.44;5055883;28;20059;-65
2021/10/25 10:44:28;;;;;;;9.15;4.78;;;;;;;18.07;60.86;98928.47;5054266;28;20033;-65
2021/10/25 10:47:07;;;;;;;9.05;4.25;;;;;;;18.00;60.04;98925.19;5044906;28;20224;-65
2021/10/25 10:49:43;;;;;;;8.20;4.50;;;;;;;18.12;58.20;98926.44;5047170;28;20021;-65
2021/10/25 10:52:28;;;;;;;14.45;5.28;;;;;;;17.86;59.45;98929.41;5049458;28;20119;-65
2021/10/25 10:55:05;;;;;;;8.07;4.93;;;;;;;17.93;60.11;98931.75;5063565;28;20021;-65
2021/10/25 11:00:25;;;;;;;11.20;4.85;;;;;;;17.88;62.09;98930.22;5056003;28;20028;-65
2021/10/25 11:03:10;;;;;;;13.20;5.05;;;;;;;18.16;61.71;98926.25;5043496;28;20317;-65
2021/10/25 11:05:41;;;;;;;11.60;5.13;;;;;;;18.32;62.49;98921.09;5042966;28;20033;-65
2021/10/25 11:08:16;;;;;;;9.15;4.80;;;;;;;18.29;62.80;98921.25;5057922;28;20025;-65
2021/10/25 11:10:43;;;;;;;12.10;5.22;;;;;;;18.19;63.47;98925.25;5051604;28;20025;-65
2021/10/25 11:13:23;;;;;;;15.52;5.88;;;;;;;18.31;62.28;98927.34;5047257;28;20098;-65
2021/10/25 11:16:03;;;;;;;13.38;4.97;;;;;;;18.30;63.36;98912.31;5061557;28;20344;-65
2021/10/25 11:18:32;;;;;;;12.98;6.10;;;;;;;18.15;62.75;98908.53;5060378;28;20038;-65
2021/10/25 11:21:13;;;;;;;11.23;5.47;;;;;;;18.08;63.31;98911.53;5047061;28;20029;-65
2021/10/25 11:23:43;;;;;;;10.93;5.32;;;;;;;18.16;62.96;98910.25;5047108;28;20025;-65
2021/10/25 11:26:10;;;;;;;11.43;5.20;;;;;;;18.24;62.72;98905.47;5047078;28;20022;-65
2021/10/25 11:28:36;;;;;;;13.02;5.30;;;;;;;18.13;62.83;98898.91;5061550;28;20372;-65
2021/10/25 11:31:02;;;;;;;13.32;6.47;;;;;;;17.98;65.30;98894.25;5053586;28;20047;-65
2021/10/25 11:33:28;;;;;;;16.58;6.35;;;;;;;17.99;63.41;98886.19;5060929;28;20088;-65
2021/10/25 11:35:54;;;;;;;15.93;6.50;;;;;;;18.00;63.56;98879.06;5066801;28;20021;-65
2021/10/25 11:38:20;;;;;;;11.70;5.53;;;;;;;18.09;63.71;98875.97;5059873;28;20312;-65
2021/10/25 11:40:46;;;;;;;10.68;5.72;;;;;;;18.13;62.23;98872.25;5046912;28;20033;-65
2021/10/25 11:43:12;;;;;;;12.95;5.78;;;;;;;18.18;62.48;98875.56;5052601;28;21090;-65
2021/10/25 11:45:38;;;;;;;16.77;5.80;;;;;;;18.11;63.62;98868.78;5057763;28;20017;-65
2021/10/25 11:48:03;;;;;;;12.23;5.70;;;;;;;18.07;63.14;98875.19;5046651;28;20378;-65
2021/10/25 11:50:31;;;;;;;13.10;6.75;;;;;;;18.13;63.26;98877.59;5059755;28;20025;-65
2021/10/25 11:52:58;;;;;;;12.68;6.55;;;;;;;17.83;65.60;98873.63;5066798;28;20035;-65
2021/10/25 11:55:29;;;;;;;13.55;6.22;;;;;;;17.66;66.76;98868.19;5055905;28;20030;-65
2021/10/25 11:58:01;;;;;;;14.45;6.53;;;;;;;17.71;65.79;98868.84;5046421;28;20056;-65
2021/10/25 12:00:30;;;;;;;15.35;6.75;;;;;;;17.55;67.41;98867.78;5048295;28;20028;-65
2021/10/25 12:03:08;;;;;;;18.02;7.18;;;;;;;17.43;66.06;98868.31;5049337;28;20343;-65
2021/10/25 12:05:34;;;;;;;15.93;6.60;;;;;;;17.24;66.93;98869.06;5046336;28;20252;-65
2021/10/25 12:08:00;;;;;;;19.60;7.43;;;;;;;17.20;67.22;98862.16;5052592;28;20022;-65
2021/10/25 12:10:27;;;;;;;14.52;7.43;;;;;;;17.09;67.39;98869.69;5059312;28;20024;-65
2021/10/25 12:12:54;;;;;;;13.82;7.30;;;;;;;17.14;67.40;98857.09;5050707;28;20032;-65
2021/10/25 12:15:22;;;;;;;17.15;6.97;;;;;;;17.06;67.92;98855.69;5052697;28;20017;-65
2021/10/25 12:17:48;;;;;;;15.10;7.88;;;;;;;17.00;69.26;98847.97;5054454;28;20100;-65
2021/10/25 12:20:25;;;;;;;15.00;7.63;;;;;;;17.04;67.29;98855.75;5054177;28;20028;-65
2021/10/25 12:23:02;;;;;;;15.40;8.00;;;;;;;16.84;69.67;98842.38;5062238;28;20058;-65
2021/10/25 12:25:30;;;;;;;18.48;8.43;;;;;;;16.80;70.38;98839.94;5053338;28;20021;-65
2021/10/25 12:28:07;;;;;;;19.30;8.23;;;;;;;16.87;70.46;98836.94;5047337;28;20097;-65
2021/10/25 12:30:32;;;;;;;18.38;8.05;;;;;;;16.84;69.43;98841.53;5065960;28;20017;-65
2021/10/25 12:33:01;;;;;;;21.63;9.68;;;;;;;16.65;70.99;98836.09;5047855;28;20160;-65
2021/10/25 12:35:39;;;;;;;20.85;9.15;;;;;;;16.63;69.04;98827.34;5052965;28;20024;-65
2021/10/25 12:38:09;;;;;;;20.00;9.23;;;;;;;16.58;70.22;98823.97;5061251;28;20018;-65
2021/10/25 12:40:41;;;;;;;22.77;10.02;;;;;;;16.54;71.91;98829.47;5047926;28;20025;-65
2021/10/25 12:43:08;;;;;;;22.48;10.85;;;;;;;16.46;72.25;98819.16;5050576;28;20013;-65
2021/10/25 12:45:41;;;;;;;21.50;10.77;;;;;;;16.41;72.30;98823.75;5065254;28;20107;-65
2021/10/25 12:48:10;;;;;;;21.48;10.38;;;;;;;16.41;71.54;98815.78;5062226;28;20025;-65
2021/10/25 12:50:37;;;;;;;19.48;9.60;;;;;;;16.48;71.47;98821.75;5063546;28;20025;-65
2021/10/25 12:53:08;;;;;;;18.25;8.75;;;;;;;16.47;70.81;98812.94;5061947;28;20341;-65
2021/10/25 12:55:35;;;;;;;22.63;9.32;;;;;;;16.46;71.60;98813.84;5063766;28;20036;-65
2021/10/25 12:58:05;;;;;;;23.58;8.07;;;;;;;16.48;72.96;98812.00;5065059;28;20092;-65
2021/10/25 13:00:31;;;;;;;20.15;9.65;;;;;;;16.47;73.79;98810.28;5052894;28;20024;-65
2021/10/25 13:02:56;;;;;;;21.17;9.45;;;;;;;16.45;72.09;98812.13;5046399;28;20076;-65
2021/10/25 13:05:31;;;;;;;17.35;9.23;;;;;;;16.38;73.27;98809.72;5045177;28;20028;-65
2021/10/25 13:07:59;;;;;;;21.52;8.50;;;;;;;16.36;73.14;98807.13;5057344;28;20268;-65
2021/10/25 13:10:27;;;;;;;14.77;8.25;;;;;;;16.45;72.37;98798.81;5049419;28;20013;-65
2021/10/25 13:12:55;;;;;;;15.27;8.18;;;;;;;16.50;73.46;98798.66;5047889;28;20044;-65
2021/10/25 13:15:23;;;;;;;14.88;7.30;;;;;;;16.47;73.29;98799.66;5044874;28;20276;-65
2021/10/25 13:17:50;;;;;;;18.48;8.27;;;;;;;16.44;72.91;98805.09;5043605;28;20049;-65
2021/10/25 13:20:18;;;;;;;17.38;7.10;;;;;;;16.43;72.26;98799.81;5057141;28;20309;-65